createdAt,value
2023-02-05T00:00:21.039Z,16.67
2023-02-05T00:02:47.722Z,19.00
2023-02-05T00:05:14.623Z,18.77
2023-02-05T00:07:41.484Z,14.27
2023-02-05T00:10:08.120Z,15.10
2023-02-05T00:12:34.699Z,17.10
2023-02-05T00:15:01.352Z,15.07
2023-02-05T00:17:28.622Z,15.80
2023-02-05T00:19:55.230Z,16.70
2023-02-05T00:22:22.478Z,14.57
2023-02-05T00:24:49.216Z,11.77
2023-02-05T00:27:15.854Z,14.43
2023-02-05T00:29:42.492Z,14.93
2023-02-05T00:32:09.194Z,16.10
2023-02-05T00:34:35.776Z,20.63
2023-02-05T00:37:02.450Z,13.27
2023-02-05T00:39:29.101Z,14.50
2023-02-05T00:41:55.720Z,14.00
2023-02-05T00:44:24.203Z,17.50
2023-02-05T00:46:50.867Z,15.40
2023-02-05T00:49:17.500Z,15.73
2023-02-05T00:51:44.160Z,17.93
2023-02-05T00:54:10.761Z,15.27
2023-02-05T00:56:37.369Z,14.87
2023-02-05T00:59:04.333Z,18.97
2023-02-05T01:01:31.123Z,14.90
2023-02-05T01:03:57.903Z,17.70
2023-02-05T01:06:24.517Z,18.33
2023-02-05T01:08:51.124Z,16.40
2023-02-05T01:11:17.822Z,14.37
2023-02-05T01:13:44.462Z,23.30
2023-02-05T01:16:11.196Z,19.90
2023-02-05T01:18:38.873Z,15.43
2023-02-05T01:21:05.710Z,14.50
2023-02-05T01:23:32.381Z,15.10
2023-02-05T01:25:59.111Z,14.17
2023-02-05T01:28:25.702Z,17.37
2023-02-05T01:30:52.394Z,19.33
2023-02-05T01:33:19.652Z,20.23
2023-02-05T01:35:46.352Z,16.63
2023-02-05T01:38:13.736Z,20.90
2023-02-05T01:40:41.256Z,18.17
2023-02-05T01:43:14.152Z,19.27
2023-02-05T01:45:51.074Z,17.10
2023-02-05T01:48:27.869Z,16.43
2023-02-05T01:50:59.027Z,18.07
2023-02-05T01:53:29.803Z,17.53
2023-02-05T01:56:01.357Z,17.70
2023-02-05T01:58:32.060Z,19.93
2023-02-05T02:00:59.757Z,17.93
2023-02-05T02:03:30.390Z,18.67
2023-02-05T02:05:57.555Z,17.70
2023-02-05T02:08:24.650Z,20.10
2023-02-05T02:10:53.894Z,15.03
2023-02-05T02:13:22.612Z,17.80
2023-02-05T02:15:50.641Z,18.17
2023-02-05T02:18:28.501Z,22.57
2023-02-05T02:21:14.012Z,22.23
2023-02-05T02:23:58.590Z,16.73
2023-02-05T02:26:42.703Z,15.37
2023-02-05T02:29:18.361Z,21.47
2023-02-05T02:32:03.087Z,21.17
2023-02-05T02:34:40.141Z,16.17
2023-02-05T02:37:10.666Z,17.87
2023-02-05T02:39:43.627Z,16.60
2023-02-05T02:42:23.831Z,13.77
2023-02-05T02:45:00.353Z,17.30
2023-02-05T02:47:32.522Z,18.73
2023-02-05T02:50:24.862Z,18.37
2023-02-05T02:52:52.561Z,18.23
2023-02-05T02:55:21.424Z,19.30
2023-02-05T02:57:52.620Z,18.10
2023-02-05T03:00:26.330Z,17.57
2023-02-05T03:03:01.361Z,15.23
2023-02-05T03:05:30.105Z,17.20
2023-02-05T03:08:02.618Z,22.33
2023-02-05T03:10:41.089Z,16.30
2023-02-05T03:13:10.089Z,17.77
2023-02-05T03:15:41.190Z,17.87
2023-02-05T03:18:08.008Z,20.97
2023-02-05T03:20:53.417Z,17.67
2023-02-05T03:23:20.835Z,21.13
2023-02-05T03:25:47.485Z,20.97
2023-02-05T03:28:16.680Z,17.07
2023-02-05T03:31:02.839Z,20.07
2023-02-05T03:33:52.361Z,22.77
2023-02-05T03:36:29.811Z,19.53
2023-02-05T03:39:18.593Z,22.33
2023-02-05T03:42:17.334Z,24.57
2023-02-05T03:45:04.104Z,17.10
2023-02-05T03:47:48.249Z,21.53
2023-02-05T03:50:32.484Z,21.70
2023-02-05T03:53:22.151Z,21.17
2023-02-05T03:55:57.677Z,19.53
2023-02-05T03:58:29.574Z,22.63
2023-02-05T04:00:56.588Z,16.83
2023-02-05T04:03:23.536Z,17.80
2023-02-05T04:05:50.845Z,18.57
2023-02-05T04:08:19.066Z,18.90
2023-02-05T04:10:50.054Z,18.93
2023-02-05T04:13:17.058Z,18.87
2023-02-05T04:15:44.205Z,24.17
2023-02-05T04:18:12.641Z,24.73
2023-02-05T04:20:39.222Z,14.73
2023-02-05T04:23:07.909Z,20.33
2023-02-05T04:25:37.127Z,19.87
2023-02-05T04:28:05.882Z,17.70
2023-02-05T04:30:33.970Z,20.87
2023-02-05T04:33:01.363Z,26.33
2023-02-05T04:35:29.224Z,22.93
2023-02-05T04:37:55.906Z,24.57
2023-02-05T04:40:22.901Z,23.00
2023-02-05T04:42:49.478Z,17.13
2023-02-05T04:45:16.072Z,23.10
2023-02-05T04:47:42.695Z,21.00
2023-02-05T04:50:09.538Z,19.97
2023-02-05T04:52:36.156Z,18.10
2023-02-05T04:55:02.764Z,21.63
2023-02-05T04:57:31.100Z,16.07
2023-02-05T04:59:57.739Z,16.00
2023-02-05T05:02:24.733Z,17.73
2023-02-05T05:04:51.406Z,18.70
2023-02-05T05:07:17.973Z,17.33
2023-02-05T05:09:44.581Z,17.37
2023-02-05T05:12:11.243Z,16.40
2023-02-05T05:14:37.931Z,18.60
2023-02-05T05:17:04.763Z,20.50
2023-02-05T05:19:41.441Z,17.20
2023-02-05T05:22:08.030Z,18.47
2023-02-05T05:24:34.625Z,19.63
2023-02-05T05:27:01.220Z,19.63
2023-02-05T05:29:27.975Z,17.60
2023-02-05T05:31:54.624Z,18.97
2023-02-05T05:34:21.654Z,24.23
2023-02-05T05:36:48.322Z,18.80
2023-02-05T05:39:33.986Z,22.40
2023-02-05T05:42:19.289Z,18.63
2023-02-05T05:44:50.184Z,25.23
2023-02-05T05:47:17.000Z,31.37
2023-02-05T05:49:43.666Z,42.60
2023-02-05T05:52:10.792Z,30.73
2023-02-05T05:54:37.608Z,158.40
2023-02-05T05:57:04.673Z,70.03
2023-02-05T05:59:31.312Z,42.30
2023-02-05T06:01:57.963Z,78.23
2023-02-05T06:04:24.651Z,50.27
2023-02-05T06:06:51.342Z,44.30
2023-02-05T06:09:17.939Z,87.80
2023-02-05T06:11:44.521Z,54.47
2023-02-05T06:14:11.124Z,73.50
2023-02-05T06:16:37.685Z,56.73
2023-02-05T06:19:11.300Z,33.57
2023-02-05T06:21:37.927Z,37.70
2023-02-05T06:24:06.104Z,44.63
2023-02-05T06:26:32.821Z,58.43
2023-02-05T06:29:03.212Z,33.23
2023-02-05T06:31:31.043Z,25.67
2023-02-05T06:33:57.779Z,25.63
2023-02-05T06:36:24.742Z,18.33
2023-02-05T06:38:51.395Z,25.47
2023-02-05T06:41:18.017Z,23.77
2023-02-05T06:43:44.628Z,31.73
2023-02-05T06:46:11.238Z,21.17
2023-02-05T06:48:37.819Z,26.33
2023-02-05T06:51:04.694Z,18.27
2023-02-05T06:53:31.311Z,22.27
2023-02-05T06:55:58.994Z,21.63
2023-02-05T06:58:25.556Z,18.90
2023-02-05T07:00:52.156Z,19.23
2023-02-05T07:03:18.764Z,19.13
2023-02-05T07:05:45.400Z,16.50
2023-02-05T07:08:12.003Z,16.67
2023-02-05T07:10:38.640Z,19.40
2023-02-05T07:13:06.071Z,15.60
2023-02-05T07:15:35.438Z,17.30
2023-02-05T07:18:02.194Z,16.80
2023-02-05T07:20:29.076Z,18.10
2023-02-05T07:22:55.706Z,20.67
2023-02-05T07:25:22.306Z,16.20
2023-02-05T07:27:48.999Z,9.40
2023-02-05T07:30:15.863Z,10.57
2023-02-05T07:32:42.525Z,10.00
2023-02-05T07:35:09.094Z,12.10
2023-02-05T07:37:37.429Z,10.47
2023-02-05T07:40:04.455Z,12.50
2023-02-05T07:42:31.733Z,10.73
2023-02-05T07:45:01.031Z,10.17
2023-02-05T07:47:27.623Z,10.97
2023-02-05T07:49:54.187Z,10.47
2023-02-05T07:52:20.777Z,10.57
2023-02-05T07:54:47.484Z,11.27
2023-02-05T07:57:14.167Z,9.50
2023-02-05T07:59:40.793Z,11.87
2023-02-05T08:02:07.566Z,8.30
2023-02-05T08:04:34.207Z,9.23
2023-02-05T08:07:00.909Z,9.67
2023-02-05T08:09:27.611Z,8.33
2023-02-05T08:11:54.312Z,10.47
2023-02-05T08:14:20.902Z,10.83
2023-02-05T08:16:47.496Z,12.70
2023-02-05T08:19:16.026Z,14.40
2023-02-05T08:21:43.353Z,14.37
2023-02-05T08:24:10.458Z,16.57
2023-02-05T08:26:37.056Z,12.57
2023-02-05T08:29:03.951Z,12.93
2023-02-05T08:31:30.612Z,12.60
2023-02-05T08:34:00.017Z,13.07
2023-02-05T08:36:27.101Z,15.73
2023-02-05T08:38:54.032Z,14.87
2023-02-05T08:41:20.933Z,20.57
2023-02-05T08:43:49.808Z,12.73
2023-02-05T08:46:19.790Z,17.07
2023-02-05T08:48:48.152Z,17.77
2023-02-05T08:51:16.446Z,16.93
2023-02-05T08:53:43.495Z,15.10
2023-02-05T08:56:11.038Z,13.47
2023-02-05T08:58:38.782Z,18.57
2023-02-05T09:01:11.788Z,17.17
2023-02-05T09:03:39.019Z,15.93
2023-02-05T09:06:11.960Z,14.13
2023-02-05T09:08:38.809Z,12.63
2023-02-05T09:11:06.691Z,16.63
2023-02-05T09:13:34.201Z,15.03
2023-02-05T09:16:00.980Z,10.50
2023-02-05T09:18:27.658Z,13.07
2023-02-05T09:20:54.615Z,9.40
2023-02-05T09:23:22.108Z,15.37
2023-02-05T09:25:49.086Z,10.30
2023-02-05T09:28:16.031Z,12.13
2023-02-05T09:30:45.225Z,10.87
2023-02-05T09:33:12.847Z,9.50
2023-02-05T09:35:39.491Z,12.67
2023-02-05T09:38:06.144Z,10.17
2023-02-05T09:40:39.589Z,10.77
2023-02-05T09:43:43.736Z,11.27
2023-02-05T09:46:35.077Z,10.00
2023-02-05T09:49:17.165Z,12.53
2023-02-05T09:51:47.959Z,12.23
2023-02-05T09:54:25.652Z,14.67
2023-02-05T09:56:56.294Z,13.97
2023-02-05T09:59:26.479Z,13.77
2023-02-05T10:01:58.481Z,11.13
2023-02-05T10:04:27.415Z,13.60
2023-02-05T10:07:06.625Z,16.77
2023-02-05T10:09:57.935Z,12.53
2023-02-05T10:12:36.466Z,13.43
2023-02-05T10:15:33.522Z,14.90
2023-02-05T10:18:34.542Z,17.83
2023-02-05T10:21:24.093Z,12.87
2023-02-05T10:24:09.784Z,14.07
2023-02-05T10:27:00.614Z,13.73
2023-02-05T10:29:42.037Z,12.87
2023-02-05T10:32:20.213Z,12.07
2023-02-05T10:34:58.238Z,13.67
2023-02-05T10:37:35.176Z,11.47
2023-02-05T10:40:04.127Z,11.73
2023-02-05T10:42:40.046Z,12.17
2023-02-05T10:45:19.314Z,10.83
2023-02-05T10:48:05.416Z,11.57
2023-02-05T10:50:57.501Z,11.60
2023-02-05T10:53:27.123Z,14.37
2023-02-05T10:55:55.583Z,13.73
2023-02-05T10:58:39.089Z,13.63
2023-02-05T11:01:15.848Z,12.10
2023-02-05T11:04:13.284Z,15.93
2023-02-05T11:06:44.770Z,7.03
2023-02-05T11:09:24.576Z,9.00
2023-02-05T11:12:04.652Z,5.47
2023-02-05T11:14:38.364Z,5.73
2023-02-05T11:17:16.819Z,4.70
2023-02-05T11:20:02.597Z,3.83
2023-02-05T11:22:36.012Z,4.93
2023-02-05T11:25:18.987Z,3.40
2023-02-05T11:28:06.039Z,3.30
2023-02-05T11:30:50.827Z,2.93
2023-02-05T11:33:31.245Z,3.60
2023-02-05T11:35:59.531Z,2.90
2023-02-05T11:38:32.811Z,3.97
2023-02-05T11:41:08.053Z,4.47
2023-02-05T11:43:37.844Z,4.97
2023-02-05T11:46:10.025Z,3.37
2023-02-05T11:48:55.239Z,4.20
2023-02-05T11:51:49.955Z,2.30
2023-02-05T11:54:16.490Z,3.17
2023-02-05T11:56:43.222Z,2.67
2023-02-05T11:59:22.162Z,2.20
2023-02-05T12:01:48.964Z,2.80
2023-02-05T12:04:19.174Z,2.80
2023-02-05T12:07:06.715Z,3.07
2023-02-05T12:09:33.386Z,2.07
2023-02-05T12:12:28.779Z,2.00
2023-02-05T12:15:24.780Z,2.60
2023-02-05T12:18:01.761Z,2.70
2023-02-05T12:20:44.568Z,2.93
2023-02-05T12:23:35.461Z,3.07
2023-02-05T12:26:23.641Z,2.13
2023-02-05T12:29:05.412Z,2.47
2023-02-05T12:31:54.818Z,2.80
2023-02-05T12:34:42.796Z,2.50
2023-02-05T12:37:45.814Z,2.97
2023-02-05T12:40:52.428Z,3.40
2023-02-05T12:43:38.879Z,2.57
2023-02-05T12:46:35.138Z,2.43
2023-02-05T12:49:25.405Z,2.93
2023-02-05T12:52:25.143Z,2.50
2023-02-05T12:55:28.534Z,3.27
2023-02-05T12:58:03.575Z,3.23
2023-02-05T13:00:53.084Z,2.20
2023-02-05T13:03:38.767Z,2.97
2023-02-05T13:06:19.230Z,2.23
2023-02-05T13:08:53.159Z,2.33
2023-02-05T13:11:30.681Z,2.03
2023-02-05T13:14:00.731Z,3.27
2023-02-05T13:16:37.850Z,2.33
2023-02-05T13:19:23.841Z,3.27
2023-02-05T13:22:19.139Z,1.93
2023-02-05T13:25:16.800Z,3.23
2023-02-05T13:28:08.029Z,3.17
2023-02-05T13:30:43.978Z,2.40
2023-02-05T13:33:10.580Z,3.20
2023-02-05T13:35:49.543Z,2.20
2023-02-05T13:38:48.491Z,2.30
2023-02-05T13:41:25.611Z,1.90
2023-02-05T13:44:07.342Z,3.00
2023-02-05T13:46:51.622Z,3.53
2023-02-05T13:49:24.014Z,3.13
2023-02-05T13:52:08.246Z,3.37
2023-02-05T13:54:37.546Z,3.67
2023-02-05T13:57:41.630Z,2.00
2023-02-05T14:00:14.203Z,3.03
2023-02-05T14:02:46.228Z,3.07
2023-02-05T14:05:14.038Z,2.87
2023-02-05T14:07:45.892Z,1.73
2023-02-05T14:10:35.216Z,2.07
2023-02-05T14:13:34.189Z,4.40
2023-02-05T14:16:39.961Z,3.03
2023-02-05T14:19:25.916Z,3.90
2023-02-05T14:22:10.593Z,3.70
2023-02-05T14:24:46.222Z,4.40
2023-02-05T14:27:31.400Z,3.20
2023-02-05T14:30:30.349Z,4.73
2023-02-05T14:33:00.099Z,3.73
2023-02-05T14:35:43.100Z,3.23
2023-02-05T14:38:31.288Z,3.90
2023-02-05T14:41:04.397Z,4.13
2023-02-05T14:43:34.703Z,3.03
2023-02-05T14:46:20.996Z,2.47
2023-02-05T14:48:48.635Z,3.93
2023-02-05T14:51:26.427Z,7.77
2023-02-05T14:53:59.200Z,16.53
2023-02-05T14:56:34.095Z,7.63
2023-02-05T14:59:07.291Z,6.70
2023-02-05T15:01:33.911Z,2.70
2023-02-05T15:04:03.255Z,4.27
2023-02-05T15:06:37.772Z,4.33
2023-02-05T15:09:15.319Z,3.47
2023-02-05T15:12:15.974Z,5.07
2023-02-05T15:14:57.511Z,2.70
2023-02-05T15:17:31.099Z,3.43
2023-02-05T15:20:03.995Z,4.53
2023-02-05T15:22:37.308Z,3.10
2023-02-05T15:25:14.737Z,3.40
2023-02-05T15:27:55.375Z,3.73
2023-02-05T15:30:28.462Z,3.40
2023-02-05T15:33:02.027Z,3.67
2023-02-05T15:35:32.595Z,3.27
2023-02-05T15:38:03.924Z,3.10
2023-02-05T15:40:33.504Z,3.73
2023-02-05T15:43:01.812Z,5.77
2023-02-05T15:45:29.596Z,3.07
2023-02-05T15:48:11.143Z,4.63
2023-02-05T15:50:57.999Z,4.23
2023-02-05T15:53:33.962Z,3.80
2023-02-05T15:56:10.999Z,5.10
2023-02-05T15:58:37.834Z,5.50
2023-02-05T16:01:04.602Z,14.20
2023-02-05T16:03:34.169Z,5.97
2023-02-05T16:06:01.305Z,3.40
2023-02-05T16:08:30.054Z,3.70
2023-02-05T16:11:02.061Z,5.60
2023-02-05T16:13:30.016Z,4.27
2023-02-05T16:16:12.343Z,4.17
2023-02-05T16:18:50.983Z,4.23
2023-02-05T16:21:29.580Z,5.03
2023-02-05T16:24:09.596Z,3.63
2023-02-05T16:26:45.248Z,4.83
2023-02-05T16:29:46.108Z,5.33
2023-02-05T16:32:24.040Z,8.93
2023-02-05T16:34:51.035Z,3.30
2023-02-05T16:37:19.431Z,4.17
2023-02-05T16:39:55.841Z,4.27
2023-02-05T16:42:25.503Z,5.00
2023-02-05T16:45:23.250Z,3.60
2023-02-05T16:48:22.133Z,4.07
2023-02-05T16:50:49.465Z,4.60
2023-02-05T16:53:28.379Z,4.77
2023-02-05T16:55:58.394Z,9.70
2023-02-05T16:58:28.836Z,4.63
2023-02-05T17:00:59.318Z,3.20
2023-02-05T17:03:30.921Z,3.30
2023-02-05T17:06:01.168Z,2.97
2023-02-05T17:08:36.944Z,2.47
2023-02-05T17:11:06.155Z,3.20
2023-02-05T17:13:32.707Z,2.80
2023-02-05T17:16:26.194Z,3.53
2023-02-05T17:18:59.600Z,3.20
2023-02-05T17:21:32.364Z,3.73
2023-02-05T17:24:02.922Z,2.73
2023-02-05T17:26:33.464Z,3.37
2023-02-05T17:29:03.896Z,2.97
2023-02-05T17:31:35.340Z,3.60
2023-02-05T17:34:02.011Z,2.67
2023-02-05T17:36:28.686Z,2.93
2023-02-05T17:38:55.453Z,3.00
2023-02-05T17:41:46.589Z,2.80
2023-02-05T17:44:15.729Z,3.27
2023-02-05T17:46:43.433Z,2.90
2023-02-05T17:49:10.386Z,3.13
2023-02-05T17:51:41.612Z,3.00
2023-02-05T17:54:17.297Z,2.50
2023-02-05T17:56:45.821Z,2.20
2023-02-05T17:59:15.305Z,3.50
2023-02-05T18:01:41.916Z,3.10
2023-02-05T18:04:08.915Z,2.53
2023-02-05T18:06:37.095Z,2.70
2023-02-05T18:09:04.912Z,2.83
2023-02-05T18:11:32.144Z,4.13
2023-02-05T18:13:59.161Z,3.40
2023-02-05T18:16:25.971Z,2.93
2023-02-05T18:18:53.469Z,3.50
2023-02-05T18:21:22.006Z,2.63
2023-02-05T18:23:50.568Z,3.50
2023-02-05T18:26:17.668Z,3.90
2023-02-05T18:28:45.487Z,3.50
2023-02-05T18:31:13.725Z,4.03
2023-02-05T18:33:41.554Z,4.33
2023-02-05T18:36:11.504Z,7.10
2023-02-05T18:38:39.515Z,4.60
2023-02-05T18:41:18.195Z,5.03
2023-02-05T18:43:45.425Z,3.83
2023-02-05T18:46:15.151Z,4.80
2023-02-05T18:48:42.650Z,4.23
2023-02-05T18:51:11.662Z,4.77
2023-02-05T18:53:40.138Z,4.60
2023-02-05T18:56:16.771Z,4.20
2023-02-05T18:58:44.850Z,3.67
2023-02-05T19:01:16.234Z,4.30
2023-02-05T19:03:43.877Z,4.17
2023-02-05T19:06:12.804Z,6.30
2023-02-05T19:08:41.700Z,5.80
2023-02-05T19:11:22.999Z,3.77
2023-02-05T19:14:05.363Z,5.10
2023-02-05T19:16:33.068Z,3.50
2023-02-05T19:19:11.660Z,4.67
2023-02-05T19:21:38.412Z,5.63
2023-02-05T19:24:07.252Z,4.80
2023-02-05T19:26:35.735Z,5.03
2023-02-05T19:29:06.784Z,7.50
2023-02-05T19:31:35.450Z,5.63
2023-02-05T19:34:02.714Z,6.37
2023-02-05T19:36:29.546Z,9.37
2023-02-05T19:38:56.712Z,4.70
2023-02-05T19:41:26.344Z,6.67
2023-02-05T19:43:58.809Z,10.13
2023-02-05T19:46:28.777Z,7.37
2023-02-05T19:48:56.862Z,7.10
2023-02-05T19:51:23.836Z,9.07
2023-02-05T19:53:50.878Z,8.90
2023-02-05T19:56:22.042Z,8.53
2023-02-05T19:58:54.356Z,9.07
2023-02-05T20:01:30.134Z,7.80
2023-02-05T20:03:59.670Z,4.80
2023-02-05T20:06:29.580Z,9.80
2023-02-05T20:08:56.609Z,9.43
2023-02-05T20:11:23.392Z,7.23
2023-02-05T20:13:50.446Z,8.93
2023-02-05T20:16:19.679Z,9.27
2023-02-05T20:18:47.681Z,9.13
2023-02-05T20:21:18.899Z,8.80
2023-02-05T20:23:47.271Z,7.97
2023-02-05T20:26:18.744Z,7.40
2023-02-05T20:29:06.032Z,7.13
2023-02-05T20:31:37.819Z,10.03
2023-02-05T20:34:18.689Z,10.73
2023-02-05T20:36:56.093Z,7.80
2023-02-05T20:39:24.627Z,9.33
2023-02-05T20:41:52.577Z,10.97
2023-02-05T20:44:19.869Z,7.40
2023-02-05T20:46:46.608Z,9.10
2023-02-05T20:49:14.530Z,7.47
2023-02-05T20:51:42.515Z,10.07
2023-02-05T20:54:09.881Z,10.87
2023-02-05T20:56:36.773Z,11.87
2023-02-05T20:59:06.368Z,12.07
2023-02-05T21:01:35.503Z,10.47
2023-02-05T21:04:03.901Z,10.63
2023-02-05T21:06:33.666Z,12.07
2023-02-05T21:09:00.284Z,12.13
2023-02-05T21:11:27.917Z,13.13
2023-02-05T21:13:55.113Z,9.40
2023-02-05T21:16:24.140Z,12.90
2023-02-05T21:18:51.928Z,7.20
2023-02-05T21:21:21.467Z,8.00
2023-02-05T21:23:49.044Z,8.37
2023-02-05T21:26:24.985Z,9.13
2023-02-05T21:28:54.008Z,10.13
2023-02-05T21:31:20.977Z,7.23
2023-02-05T21:33:47.673Z,7.57
2023-02-05T21:36:15.226Z,9.13
2023-02-05T21:38:42.614Z,8.70
2023-02-05T21:41:17.761Z,8.97
2023-02-05T21:43:49.926Z,8.73
2023-02-05T21:46:17.139Z,5.80
2023-02-05T21:48:48.893Z,8.93
2023-02-05T21:51:17.526Z,8.13
2023-02-05T21:53:44.565Z,7.77
2023-02-05T21:56:14.200Z,9.30
2023-02-05T21:58:41.608Z,12.07
2023-02-05T22:01:14.501Z,8.17
2023-02-05T22:03:42.862Z,8.20
2023-02-05T22:06:09.775Z,6.97
2023-02-05T22:08:38.700Z,7.83
2023-02-05T22:11:08.055Z,10.40
2023-02-05T22:13:38.099Z,6.47
2023-02-05T22:16:08.340Z,9.70
2023-02-05T22:18:36.483Z,8.67
2023-02-05T22:21:15.658Z,7.73
2023-02-05T22:23:44.094Z,6.93
2023-02-05T22:26:11.835Z,6.60
2023-02-05T22:28:39.218Z,5.57
2023-02-05T22:31:08.858Z,6.93
2023-02-05T22:33:37.790Z,5.77
2023-02-05T22:36:05.890Z,7.20
2023-02-05T22:38:35.111Z,7.10
2023-02-05T22:41:07.272Z,6.63
2023-02-05T22:43:34.564Z,5.83
2023-02-05T22:46:24.549Z,7.70
2023-02-05T22:48:52.807Z,6.37
2023-02-05T22:51:25.821Z,7.87
2023-02-05T22:53:53.762Z,7.23
2023-02-05T22:56:21.483Z,6.27
2023-02-05T22:58:49.705Z,5.73
2023-02-05T23:01:28.185Z,5.80
2023-02-05T23:03:55.753Z,8.70
2023-02-05T23:06:26.121Z,4.67
2023-02-05T23:08:56.239Z,5.77
2023-02-05T23:11:25.153Z,9.53
2023-02-05T23:13:52.145Z,7.60
2023-02-05T23:16:25.625Z,4.27
2023-02-05T23:18:53.703Z,11.13
2023-02-05T23:21:22.970Z,8.07
2023-02-05T23:23:50.301Z,5.30
2023-02-05T23:26:23.164Z,6.67
2023-02-05T23:28:51.306Z,6.07
2023-02-05T23:31:18.496Z,5.40
2023-02-05T23:33:45.141Z,6.80
2023-02-05T23:36:12.800Z,6.07
2023-02-05T23:38:40.041Z,6.37
2023-02-05T23:41:07.330Z,5.53
2023-02-05T23:43:35.879Z,7.13
2023-02-05T23:46:03.647Z,8.07
2023-02-05T23:48:31.292Z,7.57
2023-02-05T23:50:57.980Z,6.27
2023-02-05T23:53:25.804Z,8.47
2023-02-05T23:55:53.634Z,7.07
2023-02-05T23:58:23.971Z,5.73
